sensor_id;sensor_type;location;lat;lon;timestamp;pressure;altitude;pressure_sealevel;temperature;humidity
16431;BME280;8325;49.284;7.238;2023-05-17T04:01:00;99409.13;;;4.33;99.40
16431;BME280;8325;49.284;7.238;2023-05-17T04:05:12;99414.00;;;4.38;99.35
16431;BME280;8325;49.284;7.238;2023-05-17T04:09:29;99416.22;;;4.31;99.21
16431;BME280;8325;49.284;7.238;2023-05-17T04:13:43;99411.72;;;4.33;99.67
16431;BME280;8325;49.284;7.238;2023-05-17T04:17:54;99426.34;;;4.34;99.98
16431;BME280;8325;49.284;7.238;2023-05-17T04:22:06;99426.47;;;4.44;99.80
16431;BME280;8325;49.284;7.238;2023-05-17T04:26:18;99429.66;;;4.48;99.45
16431;BME280;8325;49.284;7.238;2023-05-17T04:30:31;99431.78;;;4.54;99.00
16431;BME280;8325;49.284;7.238;2023-05-17T04:34:43;99435.56;;;4.61;98.40
16431;BME280;8325;49.284;7.238;2023-05-17T04:38:55;99437.47;;;4.70;98.60
16431;BME280;8325;49.284;7.238;2023-05-17T04:43:10;99448.31;;;4.75;98.42
16431;BME280;8325;49.284;7.238;2023-05-17T04:47:22;99444.19;;;4.84;98.80
16431;BME280;8325;49.284;7.238;2023-05-17T04:51:35;99451.59;;;4.89;99.16
16431;BME280;8325;49.284;7.238;2023-05-17T04:55:47;99455.84;;;5.01;99.27
16431;BME280;8325;49.284;7.238;2023-05-17T05:00:01;99463.53;;;5.02;99.37
16431;BME280;8325;49.284;7.238;2023-05-17T05:04:15;99465.75;;;5.07;99.60
16431;BME280;8325;49.284;7.238;2023-05-17T05:08:32;99471.28;;;5.14;99.14
16431;BME280;8325;49.284;7.238;2023-05-17T05:12:44;99475.44;;;5.27;98.58
16431;BME280;8325;49.284;7.238;2023-05-17T05:16:56;99484.84;;;5.40;98.34
16431;BME280;8325;49.284;7.238;2023-05-17T05:21:07;99484.59;;;5.54;98.04
16431;BME280;8325;49.284;7.238;2023-05-17T05:25:19;99487.91;;;5.67;98.37
16431;BME280;8325;49.284;7.238;2023-05-17T05:29:31;99498.94;;;5.81;97.94
16431;BME280;8325;49.284;7.238;2023-05-17T05:33:43;99493.63;;;6.90;94.56
16431;BME280;8325;49.284;7.238;2023-05-17T05:37:56;99485.69;;;10.56;74.76
16431;BME280;8325;49.284;7.238;2023-05-17T05:42:08;99482.19;;;13.33;64.01
16431;BME280;8325;49.284;7.238;2023-05-17T05:46:20;99471.28;;;16.24;54.64
16431;BME280;8325;49.284;7.238;2023-05-17T05:50:33;99469.50;;;17.02;50.63
16431;BME280;8325;49.284;7.238;2023-05-17T05:54:52;99470.47;;;18.38;48.37
16431;BME280;8325;49.284;7.238;2023-05-17T05:59:04;99484.47;;;20.60;43.65
16431;BME280;8325;49.284;7.238;2023-05-17T06:03:16;99490.81;;;19.83;44.70
16431;BME280;8325;49.284;7.238;2023-05-17T06:07:28;99495.63;;;20.94;43.47
16431;BME280;8325;49.284;7.238;2023-05-17T06:11:39;99504.22;;;20.89;44.28
16431;BME280;8325;49.284;7.238;2023-05-17T06:15:51;99505.44;;;20.94;43.34
16431;BME280;8325;49.284;7.238;2023-05-17T06:20:03;99512.19;;;19.94;44.32
16431;BME280;8325;49.284;7.238;2023-05-17T06:24:15;99517.72;;;18.81;46.63
16431;BME280;8325;49.284;7.238;2023-05-17T06:28:27;99513.84;;;18.97;47.13
16431;BME280;8325;49.284;7.238;2023-05-17T06:32:38;99518.34;;;17.19;51.29
16431;BME280;8325;49.284;7.238;2023-05-17T06:36:50;99514.38;;;17.71;50.41
16431;BME280;8325;49.284;7.238;2023-05-17T06:41:02;99522.28;;;15.80;55.14
16431;BME280;8325;49.284;7.238;2023-05-17T06:45:14;99547.75;;;14.28;59.61
16431;BME280;8325;49.284;7.238;2023-05-17T06:49:25;99550.78;;;12.64;65.58
16431;BME280;8325;49.284;7.238;2023-05-17T06:53:37;99556.38;;;11.68;70.33
16431;BME280;8325;49.284;7.238;2023-05-17T06:57:48;99550.16;;;10.91;73.99
16431;BME280;8325;49.284;7.238;2023-05-17T07:02:00;99552.78;;;10.91;75.60
16431;BME280;8325;49.284;7.238;2023-05-17T07:06:12;99554.50;;;10.82;75.93
16431;BME280;8325;49.284;7.238;2023-05-17T07:10:23;99559.00;;;10.72;76.64
16431;BME280;8325;49.284;7.238;2023-05-17T07:14:35;99559.97;;;10.53;77.93
16431;BME280;8325;49.284;7.238;2023-05-17T07:18:47;99560.31;;;10.58;76.86
16431;BME280;8325;49.284;7.238;2023-05-17T07:22:58;99560.50;;;10.57;77.41
16431;BME280;8325;49.284;7.238;2023-05-17T07:27:10;99565.84;;;10.55;74.30
16431;BME280;8325;49.284;7.238;2023-05-17T07:31:22;99567.44;;;10.48;74.35
16431;BME280;8325;49.284;7.238;2023-05-17T07:35:33;99559.97;;;10.53;73.55
16431;BME280;8325;49.284;7.238;2023-05-17T07:39:45;99559.59;;;10.66;73.70
16431;BME280;8325;49.284;7.238;2023-05-17T07:43:56;99561.44;;;10.74;73.42
16431;BME280;8325;49.284;7.238;2023-05-17T07:48:08;99569.16;;;10.75;73.49
16431;BME280;8325;49.284;7.238;2023-05-17T07:52:20;99560.09;;;11.05;71.47
16431;BME280;8325;49.284;7.238;2023-05-17T07:56:31;99571.88;;;11.10;71.11
16431;BME280;8325;49.284;7.238;2023-05-17T08:00:44;99567.09;;;11.05;68.88
16431;BME280;8325;49.284;7.238;2023-05-17T08:04:55;99569.06;;;11.03;68.17
16431;BME280;8325;49.284;7.238;2023-05-17T08:09:07;99572.28;;;10.97;69.14
16431;BME280;8325;49.284;7.238;2023-05-17T08:13:19;99569.75;;;10.69;69.45
16431;BME280;8325;49.284;7.238;2023-05-17T08:17:30;99564.53;;;10.69;70.65
16431;BME280;8325;49.284;7.238;2023-05-17T08:21:42;99576.16;;;10.75;70.21
16431;BME280;8325;49.284;7.238;2023-05-17T08:25:54;99568.28;;;10.93;69.46
16431;BME280;8325;49.284;7.238;2023-05-17T08:30:06;99574.50;;;10.92;68.36
16431;BME280;8325;49.284;7.238;2023-05-17T08:34:25;99573.94;;;11.24;68.23
16431;BME280;8325;49.284;7.238;2023-05-17T08:38:36;99567.53;;;11.18;67.52
16431;BME280;8325;49.284;7.238;2023-05-17T08:42:51;99562.47;;;11.43;67.61
16431;BME280;8325;49.284;7.238;2023-05-17T08:47:03;99557.16;;;11.61;66.29
16431;BME280;8325;49.284;7.238;2023-05-17T08:51:18;99547.97;;;11.91;65.74
16431;BME280;8325;49.284;7.238;2023-05-17T08:55:30;99564.69;;;11.90;60.29
16431;BME280;8325;49.284;7.238;2023-05-17T08:59:44;99561.16;;;11.81;61.79
16431;BME280;8325;49.284;7.238;2023-05-17T09:03:58;99563.22;;;11.69;59.48
16431;BME280;8325;49.284;7.238;2023-05-17T09:08:10;99562.06;;;11.90;60.15
16431;BME280;8325;49.284;7.238;2023-05-17T09:12:24;99555.44;;;11.78;58.84
16431;BME280;8325;49.284;7.238;2023-05-17T09:16:37;99566.81;;;11.94;59.00
16431;BME280;8325;49.284;7.238;2023-05-17T09:20:49;99561.69;;;11.85;58.91
16431;BME280;8325;49.284;7.238;2023-05-17T09:25:02;99568.78;;;11.66;59.15
16431;BME280;8325;49.284;7.238;2023-05-17T09:29:15;99570.94;;;11.45;60.98
16431;BME280;8325;49.284;7.238;2023-05-17T09:33:27;99571.84;;;11.27;63.18
16431;BME280;8325;49.284;7.238;2023-05-17T09:37:38;99568.19;;;11.20;63.13
16431;BME280;8325;49.284;7.238;2023-05-17T09:41:55;99567.78;;;11.33;63.84
16431;BME280;8325;49.284;7.238;2023-05-17T09:46:07;99556.50;;;11.33;64.10
16431;BME280;8325;49.284;7.238;2023-05-17T09:50:20;99566.97;;;11.93;63.48
16431;BME280;8325;49.284;7.238;2023-05-17T09:54:39;99554.31;;;12.31;60.09
16431;BME280;8325;49.284;7.238;2023-05-17T09:58:51;99560.22;;;12.33;59.38
16431;BME280;8325;49.284;7.238;2023-05-17T10:03:04;99554.88;;;12.00;60.55
16431;BME280;8325;49.284;7.238;2023-05-17T10:07:19;99564.25;;;12.11;62.15
16431;BME280;8325;49.284;7.238;2023-05-17T10:11:33;99558.94;;;11.94;62.77
16431;BME280;8325;49.284;7.238;2023-05-17T10:15:47;99568.28;;;11.63;63.97
16431;BME280;8325;49.284;7.238;2023-05-17T10:20:00;99574.63;;;11.60;63.00
16431;BME280;8325;49.284;7.238;2023-05-17T10:24:12;99561.78;;;11.75;63.61
16431;BME280;8325;49.284;7.238;2023-05-17T10:28:26;99551.81;;;11.79;62.36
16431;BME280;8325;49.284;7.238;2023-05-17T10:32:37;99541.84;;;12.25;61.15
16431;BME280;8325;49.284;7.238;2023-05-17T10:36:50;99542.25;;;12.38;59.93
16431;BME280;8325;49.284;7.238;2023-05-17T10:41:02;99544.22;;;12.60;57.17
16431;BME280;8325;49.284;7.238;2023-05-17T10:45:14;99542.25;;;12.54;59.23
16431;BME280;8325;49.284;7.238;2023-05-17T10:49:29;99540.13;;;12.58;57.46
16431;BME280;8325;49.284;7.238;2023-05-17T10:54:07;99528.97;;;12.48;58.29
16431;BME280;8325;49.284;7.238;2023-05-17T10:58:19;99533.53;;;12.29;58.75
16431;BME280;8325;49.284;7.238;2023-05-17T11:02:31;99527.97;;;12.32;59.85
16431;BME280;8325;49.284;7.238;2023-05-17T11:06:43;99536.31;;;12.28;60.31
16431;BME280;8325;49.284;7.238;2023-05-17T11:11:12;99527.28;;;12.22;58.84
16431;BME280;8325;49.284;7.238;2023-05-17T11:15:31;99529.44;;;12.27;60.34
16431;BME280;8325;49.284;7.238;2023-05-17T11:24:07;99530.59;;;12.32;59.23
16431;BME280;8325;49.284;7.238;2023-05-17T11:28:20;99525.56;;;12.47;58.95
16431;BME280;8325;49.284;7.238;2023-05-17T11:32:32;99518.00;;;12.77;58.38
16431;BME280;8325;49.284;7.238;2023-05-17T11:36:54;99520.00;;;12.75;59.43
16431;BME280;8325;49.284;7.238;2023-05-17T11:41:17;99509.75;;;13.21;58.27
16431;BME280;8325;49.284;7.238;2023-05-17T11:45:56;99502.50;;;13.47;56.41
16431;BME280;8325;49.284;7.238;2023-05-17T11:50:09;99505.34;;;13.77;54.27
16431;BME280;8325;49.284;7.238;2023-05-17T11:54:24;99503.16;;;13.89;55.30
16431;BME280;8325;49.284;7.238;2023-05-17T11:58:36;99502.88;;;14.07;53.81
16431;BME280;8325;49.284;7.238;2023-05-17T12:02:48;99495.09;;;14.44;54.33
16431;BME280;8325;49.284;7.238;2023-05-17T12:07:00;99494.41;;;14.50;52.15
16431;BME280;8325;49.284;7.238;2023-05-17T12:11:13;99492.88;;;14.79;51.58
16431;BME280;8325;49.284;7.238;2023-05-17T12:15:27;99496.28;;;14.65;51.45
16431;BME280;8325;49.284;7.238;2023-05-17T12:19:40;99505.63;;;13.82;50.90
16431;BME280;8325;49.284;7.238;2023-05-17T12:23:52;99494.91;;;13.61;51.83
16431;BME280;8325;49.284;7.238;2023-05-17T12:28:15;99494.28;;;13.58;52.70
16431;BME280;8325;49.284;7.238;2023-05-17T12:32:27;99489.34;;;13.95;51.76
16431;BME280;8325;49.284;7.238;2023-05-17T12:36:39;99477.47;;;14.30;50.45
16431;BME280;8325;49.284;7.238;2023-05-17T12:40:51;99478.88;;;14.64;50.88
16431;BME280;8325;49.284;7.238;2023-05-17T12:45:03;99471.41;;;14.90;48.71
16431;BME280;8325;49.284;7.238;2023-05-17T12:49:14;99468.06;;;14.96;46.91
16431;BME280;8325;49.284;7.238;2023-05-17T12:53:33;99461.63;;;15.14;46.50
16431;BME280;8325;49.284;7.238;2023-05-17T12:57:53;99464.69;;;15.77;46.85
16431;BME280;8325;49.284;7.238;2023-05-17T13:02:05;99464.78;;;14.94;48.13
16431;BME280;8325;49.284;7.238;2023-05-17T13:06:17;99474.28;;;14.81;47.41
16431;BME280;8325;49.284;7.238;2023-05-17T13:10:28;99457.91;;;14.93;47.52
16431;BME280;8325;49.284;7.238;2023-05-17T13:18:57;99467.03;;;14.83;46.27
16431;BME280;8325;49.284;7.238;2023-05-17T13:23:09;99461.53;;;15.22;44.88
16431;BME280;8325;49.284;7.238;2023-05-17T13:27:20;99455.19;;;15.31;42.43
16431;BME280;8325;49.284;7.238;2023-05-17T13:31:32;99431.63;;;15.74;41.73
16431;BME280;8325;49.284;7.238;2023-05-17T13:35:44;99439.16;;;15.62;41.50
16431;BME280;8325;49.284;7.238;2023-05-17T13:39:56;99429.06;;;15.81;42.78
16431;BME280;8325;49.284;7.238;2023-05-17T13:44:08;99409.94;;;15.72;41.46
16431;BME280;8325;49.284;7.238;2023-05-17T13:48:20;99416.59;;;15.90;42.45
16431;BME280;8325;49.284;7.238;2023-05-17T13:52:32;99420.00;;;16.05;40.81
16431;BME280;8325;49.284;7.238;2023-05-17T13:56:44;99404.69;;;16.15;40.60
16431;BME280;8325;49.284;7.238;2023-05-17T14:00:56;99406.44;;;15.86;41.41
16431;BME280;8325;49.284;7.238;2023-05-17T14:05:07;99408.91;;;16.38;40.30
16431;BME280;8325;49.284;7.238;2023-05-17T14:09:20;99405.31;;;16.17;40.93
16431;BME280;8325;49.284;7.238;2023-05-17T14:13:31;99418.66;;;16.37;40.84
16431;BME280;8325;49.284;7.238;2023-05-17T14:17:43;99408.38;;;16.21;41.04
16431;BME280;8325;49.284;7.238;2023-05-17T14:21:55;99408.75;;;16.67;40.08
16431;BME280;8325;49.284;7.238;2023-05-17T14:26:07;99415.69;;;16.47;39.50
16431;BME280;8325;49.284;7.238;2023-05-17T14:30:19;99413.34;;;16.30;38.72
16431;BME280;8325;49.284;7.238;2023-05-17T14:34:31;99412.06;;;16.48;38.13
16431;BME280;8325;49.284;7.238;2023-05-17T14:38:42;99415.16;;;16.08;39.34
16431;BME280;8325;49.284;7.238;2023-05-17T14:42:54;99406.44;;;15.86;40.51
16431;BME280;8325;49.284;7.238;2023-05-17T14:47:07;99412.13;;;15.54;41.15
16431;BME280;8325;49.284;7.238;2023-05-17T14:51:18;99408.00;;;15.81;40.53
16431;BME280;8325;49.284;7.238;2023-05-17T14:55:30;99403.22;;;15.70;41.08
16431;BME280;8325;49.284;7.238;2023-05-17T14:59:42;99396.84;;;16.00;39.56
16431;BME280;8325;49.284;7.238;2023-05-17T15:03:55;99386.22;;;16.15;39.46
16431;BME280;8325;49.284;7.238;2023-05-17T15:08:07;99385.97;;;16.31;40.54
16431;BME280;8325;49.284;7.238;2023-05-17T15:12:19;99395.13;;;16.36;40.41
16431;BME280;8325;49.284;7.238;2023-05-17T15:16:31;99386.22;;;16.15;41.60
16431;BME280;8325;49.284;7.238;2023-05-17T15:20:43;99385.22;;;16.16;41.20
16431;BME280;8325;49.284;7.238;2023-05-17T15:24:56;99379.44;;;16.27;40.64
16431;BME280;8325;49.284;7.238;2023-05-17T15:29:08;99381.59;;;16.17;41.36
16431;BME280;8325;49.284;7.238;2023-05-17T15:33:20;99384.53;;;15.50;41.32
16431;BME280;8325;49.284;7.238;2023-05-17T15:37:32;99379.19;;;15.43;42.20
16431;BME280;8325;49.284;7.238;2023-05-17T15:41:43;99379.94;;;15.73;42.35
16431;BME280;8325;49.284;7.238;2023-05-17T15:45:55;99369.50;;;15.80;41.89
16431;BME280;8325;49.284;7.238;2023-05-17T15:50:07;99370.06;;;15.97;41.09
16431;BME280;8325;49.284;7.238;2023-05-17T15:54:19;99373.38;;;16.05;41.57
16431;BME280;8325;49.284;7.238;2023-05-17T15:58:30;99369.56;;;16.36;40.18
16431;BME280;8325;49.284;7.238;2023-05-17T16:02:45;99379.19;;;16.01;39.92
16431;BME280;8325;49.284;7.238;2023-05-17T16:06:57;99378.69;;;16.12;40.50
16431;BME280;8325;49.284;7.238;2023-05-17T16:11:09;99383.47;;;16.23;39.63
16431;BME280;8325;49.284;7.238;2023-05-17T16:15:20;99369.03;;;16.19;40.11
16431;BME280;8325;49.284;7.238;2023-05-17T16:19:32;99365.13;;;16.37;40.99
16431;BME280;8325;49.284;7.238;2023-05-17T16:23:45;99373.50;;;16.19;40.83
16431;BME280;8325;49.284;7.238;2023-05-17T16:27:57;99378.53;;;16.14;39.62
16431;BME280;8325;49.284;7.238;2023-05-17T16:32:09;99380.59;;;15.75;40.19
16431;BME280;8325;49.284;7.238;2023-05-17T16:36:20;99369.94;;;15.83;41.54
16431;BME280;8325;49.284;7.238;2023-05-17T16:40:33;99367.75;;;15.87;40.64
16431;BME280;8325;49.284;7.238;2023-05-17T16:44:44;99369.56;;;15.86;41.16
16431;BME280;8325;49.284;7.238;2023-05-17T16:48:56;99380.47;;;15.83;42.72
16431;BME280;8325;49.284;7.238;2023-05-17T16:53:08;99374.81;;;15.86;42.42
16431;BME280;8325;49.284;7.238;2023-05-17T16:57:19;99379.72;;;15.90;41.95
16431;BME280;8325;49.284;7.238;2023-05-17T17:01:31;99393.31;;;15.93;42.66
16431;BME280;8325;49.284;7.238;2023-05-17T17:05:43;99377.41;;;15.65;41.14
16431;BME280;8325;49.284;7.238;2023-05-17T17:09:54;99384.03;;;15.39;40.91
16431;BME280;8325;49.284;7.238;2023-05-17T17:14:06;99379.50;;;15.70;41.84
16431;BME280;8325;49.284;7.238;2023-05-17T17:18:18;99381.81;;;15.58;42.18
16431;BME280;8325;49.284;7.238;2023-05-17T17:22:30;99380.72;;;15.67;41.70
16431;BME280;8325;49.284;7.238;2023-05-17T17:26:42;99381.69;;;15.51;41.80
16431;BME280;8325;49.284;7.238;2023-05-17T17:30:55;99381.38;;;15.39;42.15
16431;BME280;8325;49.284;7.238;2023-05-17T17:35:07;99380.19;;;15.42;43.14
16431;BME280;8325;49.284;7.238;2023-05-17T17:39:19;99377.66;;;15.49;43.03
16431;BME280;8325;49.284;7.238;2023-05-17T17:43:31;99378.03;;;15.31;42.13
16431;BME280;8325;49.284;7.238;2023-05-17T17:47:42;99377.84;;;15.32;42.38
16431;BME280;8325;49.284;7.238;2023-05-17T17:51:54;99390.28;;;15.38;42.42
16431;BME280;8325;49.284;7.238;2023-05-17T17:56:06;99396.72;;;15.36;41.61
16431;BME280;8325;49.284;7.238;2023-05-17T18:00:18;99400.56;;;15.18;41.99
16431;BME280;8325;49.284;7.238;2023-05-17T18:04:30;99382.59;;;14.92;42.14
16431;BME280;8325;49.284;7.238;2023-05-17T18:08:42;99391.22;;;15.01;42.64
16431;BME280;8325;49.284;7.238;2023-05-17T18:12:54;99393.03;;;15.01;42.70
16431;BME280;8325;49.284;7.238;2023-05-17T18:17:05;99390.03;;;14.89;42.87
16431;BME280;8325;49.284;7.238;2023-05-17T18:21:18;99387.13;;;14.69;43.36
16431;BME280;8325;49.284;7.238;2023-05-17T18:25:30;99398.38;;;14.63;43.12
16431;BME280;8325;49.284;7.238;2023-05-17T18:29:41;99400.41;;;14.53;44.70
16431;BME280;8325;49.284;7.238;2023-05-17T18:33:53;99400.19;;;14.39;45.49
16431;BME280;8325;49.284;7.238;2023-05-17T18:38:07;99398.28;;;14.33;45.62
16431;BME280;8325;49.284;7.238;2023-05-17T18:42:19;99397.25;;;14.19;46.72
16431;BME280;8325;49.284;7.238;2023-05-17T18:46:31;99392.91;;;14.03;47.80
16431;BME280;8325;49.284;7.238;2023-05-17T18:50:43;99401.56;;;13.89;50.61
16431;BME280;8325;49.284;7.238;2023-05-17T18:54:55;99395.88;;;13.77;50.96
16431;BME280;8325;49.284;7.238;2023-05-17T18:59:06;99405.88;;;13.51;55.48
16431;BME280;8325;49.284;7.238;2023-05-17T19:03:18;99405.31;;;13.32;55.60
16431;BME280;8325;49.284;7.238;2023-05-17T19:07:30;99407.34;;;13.06;57.64
16431;BME280;8325;49.284;7.238;2023-05-17T19:11:42;99415.91;;;12.83;59.31
16431;BME280;8325;49.284;7.238;2023-05-17T19:15:53;99414.19;;;12.59;60.50
16431;BME280;8325;49.284;7.238;2023-05-17T19:20:05;99421.06;;;12.44;61.51
16431;BME280;8325;49.284;7.238;2023-05-17T19:24:17;99427.75;;;12.30;63.08
16431;BME280;8325;49.284;7.238;2023-05-17T19:28:29;99428.22;;;12.09;63.84
16431;BME280;8325;49.284;7.238;2023-05-17T19:32:41;99438.69;;;11.93;65.16
16431;BME280;8325;49.284;7.238;2023-05-17T19:36:53;99436.66;;;11.70;66.00
16431;BME280;8325;49.284;7.238;2023-05-17T19:41:05;99447.41;;;11.59;67.93
16431;BME280;8325;49.284;7.238;2023-05-17T19:45:17;99457.16;;;11.41;67.95
16431;BME280;8325;49.284;7.238;2023-05-17T19:49:29;99463.25;;;11.23;69.09
16431;BME280;8325;49.284;7.238;2023-05-17T19:53:41;99463.69;;;11.11;71.22
16431;BME280;8325;49.284;7.238;2023-05-17T19:58:06;99458.13;;;11.05;71.61
16431;BME280;8325;49.284;7.238;2023-05-17T20:02:18;99462.78;;;10.94;73.01
16431;BME280;8325;49.284;7.238;2023-05-17T20:06:29;99471.78;;;10.73;74.17
16431;BME280;8325;49.284;7.238;2023-05-17T20:10:42;99472.19;;;10.60;74.30
16431;BME280;8325;49.284;7.238;2023-05-17T20:14:53;99468.06;;;10.58;74.22
16431;BME280;8325;49.284;7.238;2023-05-17T20:19:05;99465.72;;;10.47;75.15
16431;BME280;8325;49.284;7.238;2023-05-17T20:23:17;99466.84;;;10.44;76.25
16431;BME280;8325;49.284;7.238;2023-05-17T20:27:28;99466.31;;;10.41;76.95
16431;BME280;8325;49.284;7.238;2023-05-17T20:31:40;99469.00;;;10.31;77.67
16431;BME280;8325;49.284;7.238;2023-05-17T20:35:52;99481.53;;;10.27;78.13
16431;BME280;8325;49.284;7.238;2023-05-17T20:40:05;99477.03;;;10.20;78.52
16431;BME280;8325;49.284;7.238;2023-05-17T20:44:19;99477.75;;;10.12;78.48
16431;BME280;8325;49.284;7.238;2023-05-17T20:48:32;99473.88;;;9.98;79.21
16431;BME280;8325;49.284;7.238;2023-05-17T20:52:44;99469.03;;;9.85;80.03
16431;BME280;8325;49.284;7.238;2023-05-17T20:56:56;99477.28;;;9.81;79.90
16431;BME280;8325;49.284;7.238;2023-05-17T21:01:08;99476.34;;;9.72;80.67
16431;BME280;8325;49.284;7.238;2023-05-17T21:05:20;99486.25;;;9.68;81.29
16431;BME280;8325;49.284;7.238;2023-05-17T21:09:32;99484.75;;;9.66;81.44
16431;BME280;8325;49.284;7.238;2023-05-17T21:13:45;99484.97;;;9.55;82.53
16431;BME280;8325;49.284;7.238;2023-05-17T21:17:56;99489.38;;;9.44;82.56
16431;BME280;8325;49.284;7.238;2023-05-17T21:22:08;99487.03;;;9.51;81.19
16431;BME280;8325;49.284;7.238;2023-05-17T21:26:20;99475.47;;;9.54;79.67
